Página principal
METAR-TAF:

METAR-TAF

Aeroportos :

Irkutsk, Rússia

latitude: 52-16N, longitude: 104-19E, altura: 513 m

Observação actual do tempo

O boletim foi feito há 46 minutos, às 01:30 UTC
Vento 2 kt com direcção variável
Temperatura -1°C
Humidade 74%
Pressão 1019 hPa
Visibilidade 10 km ou mais
sem nuvens abaixo de 1500 metros e sem cumulonimbus

METAR: UIII 280130Z VRB01MPS CAVOK M01/M05 Q1019 R12/CLRD60 NOSIG RMK QFE722/0962

Hora: 10:16 (02:16 UTC)

Previsão

O boletim foi feito há 3 horas e 16 minutos, às 23:00 UTC
Previsão válida de 28 às 00 UTC a 28 às 24 UTC
Vento 2 kt com direcção variável
Visibilidade 10 km ou mais
sem nuvens abaixo de 1500 metros e sem cumulonimbus

TAF: UIII 272300Z 2800/2824 VRB01MPS CAVOK

Observações e previsões do tempo de mais de 4000 aeroportos (mensagens METAR e TAF).

As estações disponíveis são os pontos amarelos e vermelhos sobre o mapa.

Mova o rato sobre o mapa para ver o nome da estação.

Depois clique no ponto para visualizar as observações e previsões meteorológicas.

Para alterar o mapa : clique nos botões verdes com uma cruz preta para aumentar o zoom; no botão verde com uma pitada de zoom; ou nas setas verdes para mapas adjacentes.


METAR-TAF: